Time;durP1;ratioP1;P1;durP2;ratioP2;P2;SDS_P1;SDS_P2;PMS_P1;PMS_P2;Temp;Humidity;BMP_temperature;BMP_pressure;BME280_temperature;BME280_humidity;BME280_pressure;Samples;Min_cycle;Max_cycle;Signal;HPM_P1;HPM_P2
2021/01/06 00:00:52;;;;;;;17.80;15.85;;;;;;;2.78;86.06;97986.97;1790763;80;20959;-66
2021/01/06 00:03:24;;;;;;;19.07;16.85;;;;;;;2.79;86.14;97986.05;1779970;80;21460;-67
2021/01/06 00:05:58;;;;;;;19.25;14.93;;;;;;;2.78;86.07;97986.97;1790943;80;20987;-66
2021/01/06 00:08:26;;;;;;;21.80;17.23;;;;;;;2.81;86.04;97995.27;1780112;80;21333;-67
2021/01/06 00:10:55;;;;;;;19.25;15.53;;;;;;;2.81;86.02;97993.47;1790862;80;20983;-66
2021/01/06 00:13:24;;;;;;;19.00;15.98;;;;;;;2.82;86.13;98008.45;1780179;80;21536;-66
2021/01/06 00:15:52;;;;;;;18.67;16.10;;;;;;;2.82;86.11;98007.13;1790888;80;21014;-67
2021/01/06 00:18:20;;;;;;;20.10;16.15;;;;;;;2.81;86.10;98009.38;1780136;80;20924;-66
2021/01/06 00:20:48;;;;;;;22.75;17.27;;;;;;;2.82;86.19;98010.23;1790947;80;21371;-65
2021/01/06 00:23:18;;;;;;;21.10;16.48;;;;;;;2.81;86.29;98010.70;1780075;80;20896;-65
2021/01/06 00:25:48;;;;;;;21.37;17.98;;;;;;;2.83;86.29;98019.92;1790942;78;20888;-65
2021/01/06 00:28:18;;;;;;;19.37;17.20;;;;;;;2.85;86.36;98018.94;1780066;80;20916;-66
2021/01/06 00:30:53;;;;;;;20.88;18.20;;;;;;;2.86;86.39;98017.13;1791025;80;20888;-66
2021/01/06 00:33:23;;;;;;;21.25;17.52;;;;;;;2.87;86.49;98024.17;1780191;80;21366;-67
2021/01/06 00:36:00;;;;;;;24.02;18.30;;;;;;;2.87;86.56;98027.67;1790831;80;21038;-67
2021/01/06 00:38:28;;;;;;;23.20;17.75;;;;;;;2.88;86.54;98029.38;1780177;80;20936;-65
2021/01/06 00:40:57;;;;;;;24.50;19.23;;;;;;;2.89;86.52;98028.46;1790890;80;20935;-65
2021/01/06 00:43:24;;;;;;;23.22;19.32;;;;;;;2.93;86.47;98024.34;1777140;79;21001;-65
2021/01/06 00:45:52;;;;;;;23.65;18.17;;;;;;;2.93;86.44;98023.02;1774263;80;21429;-66
2021/01/06 00:48:20;;;;;;;26.07;19.80;;;;;;;2.94;86.49;98027.41;1774643;80;20907;-66
2021/01/06 00:50:49;;;;;;;27.67;20.27;;;;;;;2.94;86.51;98023.42;1774208;80;20938;-66
2021/01/06 00:53:23;;;;;;;24.00;19.00;;;;;;;2.94;86.41;98032.71;1774525;80;20930;-66
2021/01/06 00:55:52;;;;;;;22.10;17.98;;;;;;;2.95;86.34;98029.11;1774606;80;21021;-66
2021/01/06 00:58:19;;;;;;;23.40;18.45;;;;;;;2.96;86.29;98029.05;1774519;80;21296;-66
2021/01/06 01:00:48;;;;;;;22.62;17.62;;;;;;;2.96;86.30;98033.50;1744508;80;20942;-66
2021/01/06 01:03:16;;;;;;;22.10;18.05;;;;;;;2.95;86.32;98030.44;1774389;80;20934;-66
2021/01/06 01:05:49;;;;;;;23.32;18.07;;;;;;;2.93;86.33;98031.83;1774326;80;20942;-66
2021/01/06 01:08:17;;;;;;;23.05;17.32;;;;;;;2.93;86.27;98041.59;1774776;80;21352;-66
2021/01/06 01:10:49;;;;;;;22.25;16.27;;;;;;;2.92;86.26;98048.70;1774643;80;22289;-66
2021/01/06 01:13:23;;;;;;;17.98;15.25;;;;;;;2.92;86.21;98055.77;1774785;80;21352;-66
2021/01/06 01:15:56;;;;;;;15.72;13.98;;;;;;;2.90;86.18;98050.53;1774886;80;20898;-65
2021/01/06 01:18:27;;;;;;;21.33;16.20;;;;;;;2.89;86.21;98051.01;1774002;80;20986;-66
2021/01/06 01:20:56;;;;;;;20.27;17.80;;;;;;;2.91;86.27;98056.72;1772673;80;20994;-65
2021/01/06 01:23:26;;;;;;;22.35;18.45;;;;;;;2.93;86.30;98058.83;1774750;80;22307;-65
2021/01/06 01:25:56;;;;;;;24.32;18.02;;;;;;;2.93;86.31;98057.50;1774567;80;21037;-65
2021/01/06 01:28:25;;;;;;;24.65;17.77;;;;;;;2.95;86.17;98060.95;1774504;80;21005;-64
2021/01/06 01:30:54;;;;;;;24.80;18.42;;;;;;;2.95;86.14;98056.52;1774518;80;20982;-65
2021/01/06 01:33:25;;;;;;;22.00;17.95;;;;;;;2.97;86.12;98053.80;1774459;80;21021;-66
2021/01/06 01:35:55;;;;;;;26.55;19.80;;;;;;;2.97;86.02;98046.70;1774163;80;21392;-66
2021/01/06 01:38:27;;;;;;;20.23;17.02;;;;;;;2.96;85.98;98054.72;1774115;80;21007;-66
2021/01/06 01:41:10;;;;;;;20.55;16.50;;;;;;;2.95;85.97;98052.55;1774496;80;21013;-66
2021/01/06 01:43:38;;;;;;;19.10;15.53;;;;;;;2.95;85.96;98058.30;1770043;80;20942;-64
2021/01/06 01:46:14;;;;;;;17.05;15.25;;;;;;;2.94;85.85;98059.24;1748123;82;20898;-67
2021/01/06 01:48:47;;;;;;;13.65;11.53;;;;;;;2.92;85.80;98056.66;1746297;82;21236;-67
2021/01/06 01:51:19;;;;;;;12.05;9.60;;;;;;;2.93;85.77;98060.16;1748005;82;20993;-65
2021/01/06 01:53:51;;;;;;;9.88;8.93;;;;;;;2.92;85.70;98061.08;1746266;82;20958;-66
2021/01/06 01:56:20;;;;;;;12.53;8.30;;;;;;;2.93;85.61;98068.97;1748194;82;20954;-65
2021/01/06 01:58:49;;;;;;;10.32;7.83;;;;;;;2.93;85.37;98068.12;1748065;82;20938;-66
2021/01/06 02:01:17;;;;;;;9.20;7.90;;;;;;;2.94;85.05;98072.51;1748063;82;21360;-66
2021/01/06 02:03:57;;;;;;;9.28;8.33;;;;;;;2.96;84.69;98071.49;1748045;82;21010;-64
2021/01/06 02:06:33;;;;;;;11.12;8.70;;;;;;;3.00;84.54;98082.38;1748098;82;21033;-65
2021/01/06 02:09:12;;;;;;;8.13;7.10;;;;;;;3.04;84.45;98073.81;1748011;80;21025;-68
2021/01/06 02:11:44;;;;;;;13.68;11.70;;;;;;;3.05;84.29;98064.93;1748135;82;21380;-66
2021/01/06 02:14:21;;;;;;;18.07;14.68;;;;;;;3.04;84.18;98065.41;1748030;82;21335;-66
2021/01/06 02:17:04;;;;;;;19.17;14.68;;;;;;;3.04;83.99;98072.48;1748081;82;20903;-64
2021/01/06 02:19:35;;;;;;;17.37;13.62;;;;;;;3.02;83.95;98069.05;1748037;82;20973;-66
2021/01/06 02:22:05;;;;;;;14.60;12.80;;;;;;;2.99;83.95;98073.16;1747851;82;21017;-66
2021/01/06 02:24:34;;;;;;;11.10;9.03;;;;;;;2.96;83.92;98071.97;1748167;82;21029;-67
2021/01/06 02:27:04;;;;;;;14.53;12.98;;;;;;;2.94;83.80;98076.02;1748144;82;21486;-67
2021/01/06 02:29:33;;;;;;;14.47;12.93;;;;;;;2.93;83.78;98076.08;1747952;80;21065;-66
2021/01/06 02:32:00;;;;;;;14.60;12.82;;;;;;;2.93;83.78;98078.73;1748156;82;20974;-66
2021/01/06 02:34:28;;;;;;;14.87;13.28;;;;;;;2.92;83.86;98075.67;1722989;82;22270;-65
2021/01/06 02:36:57;;;;;;;18.10;14.45;;;;;;;2.91;83.89;98076.14;1748071;82;20891;-65
2021/01/06 02:39:25;;;;;;;17.10;14.28;;;;;;;2.91;83.93;98084.10;1748066;82;21373;-65
2021/01/06 02:41:52;;;;;;;20.52;15.40;;;;;;;2.91;83.94;98079.27;1747977;82;21017;-66
2021/01/06 02:44:20;;;;;;;18.52;14.03;;;;;;;2.92;83.96;98082.30;1748027;81;20926;-66
2021/01/06 02:46:48;;;;;;;27.48;16.67;;;;;;;2.92;83.94;98082.30;1748007;82;20926;-66
2021/01/06 02:49:16;;;;;;;19.77;15.63;;;;;;;2.92;84.01;98074.34;1748051;82;20971;-66
2021/01/06 02:51:52;;;;;;;20.43;13.10;;;;;;;2.89;84.06;98070.91;1747985;82;21384;-66
2021/01/06 02:54:31;;;;;;;15.18;10.65;;;;;;;2.89;84.00;98082.84;1748002;82;20938;-66
2021/01/06 02:56:59;;;;;;;12.58;9.88;;;;;;;2.88;83.77;98073.63;1748054;82;20934;-65
2021/01/06 02:59:35;;;;;;;15.80;10.68;;;;;;;2.86;83.46;98076.34;1748013;82;20952;-65
2021/01/06 03:02:03;;;;;;;11.30;8.38;;;;;;;2.86;83.27;98081.65;1748016;82;20981;-66
2021/01/06 03:04:34;;;;;;;11.20;8.95;;;;;;;2.85;83.09;98081.71;1748065;82;21372;-65
2021/01/06 03:07:03;;;;;;;8.48;7.22;;;;;;;2.84;82.90;98079.53;1748033;82;20993;-67
2021/01/06 03:09:40;;;;;;;7.40;5.53;;;;;;;2.81;82.44;98074.36;1748051;80;21478;-65
2021/01/06 03:12:20;;;;;;;8.08;6.12;;;;;;;2.81;82.41;98073.03;1747951;82;20926;-65
2021/01/06 03:14:48;;;;;;;8.38;5.78;;;;;;;2.79;82.07;98085.51;1748133;82;20933;-66
2021/01/06 03:17:17;;;;;;;6.80;5.75;;;;;;;2.77;81.86;98087.34;1722394;82;21450;-66
2021/01/06 03:19:48;;;;;;;8.05;6.00;;;;;;;2.75;81.78;98082.58;1747953;82;21873;-66
2021/01/06 03:22:19;;;;;;;7.45;5.50;;;;;;;2.73;81.77;98085.77;1723639;82;21478;-66
2021/01/06 03:25:06;;;;;;;7.50;5.08;;;;;;;2.70;81.75;98081.92;1748032;82;21491;-66
2021/01/06 03:27:34;;;;;;;6.85;5.25;;;;;;;2.65;81.70;98084.77;1748038;81;20998;-66
2021/01/06 03:30:04;;;;;;;6.72;5.67;;;;;;;2.59;81.64;98080.19;1748065;82;21139;-65
2021/01/06 03:32:40;;;;;;;6.85;5.28;;;;;;;2.52;81.54;98083.09;1747857;82;20997;-65
2021/01/06 03:35:35;;;;;;;6.03;5.42;;;;;;;2.45;81.53;98084.27;1748040;82;20954;-65
2021/01/06 03:38:37;;;;;;;;;;;;;;;2.39;81.50;98086.32;1725289;82;21029;-66
2021/01/06 03:41:07;;;;;;;6.92;5.87;;;;;;;2.32;81.46;98088.37;1748077;82;20130;-65
2021/01/06 03:43:44;;;;;;;6.95;5.40;;;;;;;2.20;81.50;98081.77;1747977;80;22352;-65
2021/01/06 03:46:35;;;;;;;5.92;4.30;;;;;;;2.13;81.47;98082.48;1747837;81;21059;-66
2021/01/06 03:49:39;;;;;;;7.45;5.08;;;;;;;2.05;81.43;98075.31;1748040;82;21158;-66
2021/01/06 03:52:34;;;;;;;6.83;4.95;;;;;;;1.99;81.52;98083.03;1696145;82;22042;-66
2021/01/06 03:55:31;;;;;;;29.23;14.80;;;;;;;1.91;81.59;98068.38;1747664;82;21017;-66
2021/01/06 03:57:59;;;;;;;33.53;14.78;;;;;;;1.82;81.60;98078.86;1748014;82;21335;-66
2021/01/06 04:00:50;;;;;;;28.85;12.78;;;;;;;1.73;81.63;98084.51;1747972;82;20977;-66
2021/01/06 04:03:27;;;;;;;9.48;6.03;;;;;;;1.68;81.70;98091.30;1748028;82;20934;-65
2021/01/06 04:05:57;;;;;;;7.20;6.47;;;;;;;1.59;81.73;98092.98;1747973;82;21013;-66
2021/01/06 04:08:46;;;;;;;10.00;8.75;;;;;;;1.53;81.81;98084.83;1748023;82;20953;-65
2021/01/06 04:11:17;;;;;;;9.95;7.12;;;;;;;1.50;81.88;98088.02;1748030;82;21253;-65
2021/01/06 04:13:45;;;;;;;10.82;7.33;;;;;;;1.48;81.89;98085.91;1723522;82;21025;-65
2021/01/06 04:16:13;;;;;;;16.10;9.48;;;;;;;1.46;82.01;98091.73;1747967;82;21022;-65
2021/01/06 04:18:42;;;;;;;14.63;8.28;;;;;;;1.44;82.17;98091.31;1747932;81;20891;-64
2021/01/06 04:21:11;;;;;;;12.13;8.20;;;;;;;1.40;82.23;98093.69;1748070;82;21470;-65
2021/01/06 04:23:39;;;;;;;11.80;8.20;;;;;;;1.36;82.45;98100.00;1747959;82;21358;-65
2021/01/06 04:26:07;;;;;;;12.37;9.05;;;;;;;1.31;82.59;98090.05;1747890;81;20969;-64
2021/01/06 04:28:35;;;;;;;11.68;8.18;;;;;;;1.25;82.75;98105.69;1722556;82;21014;-65
2021/01/06 04:31:06;;;;;;;10.05;7.62;;;;;;;1.22;82.89;98100.50;1747992;82;20962;-65
2021/01/06 04:33:42;;;;;;;13.93;8.48;;;;;;;1.16;83.03;98106.48;1747933;82;21001;-65
2021/01/06 04:36:28;;;;;;;10.03;7.87;;;;;;;1.11;83.06;98107.12;1747961;82;21367;-65
2021/01/06 04:38:59;;;;;;;10.15;7.42;;;;;;;1.04;83.21;98107.33;1747960;80;20937;-64
2021/01/06 04:41:42;;;;;;;9.00;7.08;;;;;;;0.98;83.40;98101.38;1748129;82;20954;-65
2021/01/06 04:44:31;;;;;;;7.65;6.33;;;;;;;0.91;83.63;98106.02;1747831;79;20930;-66
2021/01/06 04:47:42;;;;;;;9.30;6.70;;;;;;;0.85;83.89;98103.59;1748012;82;20938;-66
2021/01/06 04:50:41;;;;;;;11.43;8.80;;;;;;;0.79;84.09;98098.52;1748145;81;21376;-66
2021/01/06 04:53:39;;;;;;;10.15;8.28;;;;;;;0.71;84.30;98091.73;1665566;82;21007;-66
2021/01/06 04:56:35;;;;;;;10.63;7.00;;;;;;;0.66;84.40;98095.44;1748121;82;20926;-66
2021/01/06 04:59:30;;;;;;;9.88;8.80;;;;;;;0.58;84.49;98094.84;1748112;82;20946;-66
2021/01/06 05:02:36;;;;;;;12.45;8.83;;;;;;;;;;1842373;78;28070;-65
2021/01/06 05:05:37;;;;;;;9.68;8.20;;;;;;;0.42;84.68;98101.09;1817692;79;20916;-66
2021/01/06 05:08:36;;;;;;;9.43;7.78;;;;;;;0.34;84.81;98100.88;1817508;79;21425;-65
2021/01/06 05:11:24;;;;;;;8.55;7.25;;;;;;;0.27;84.96;98109.05;1817383;79;20944;-65
2021/01/06 05:14:18;;;;;;;15.40;10.00;;;;;;;0.20;85.09;98105.75;1750580;82;21366;-65
2021/01/06 05:16:51;;;;;;;11.22;8.38;;;;;;;0.15;85.02;98115.61;1712092;83;21525;-65
2021/01/06 05:19:27;;;;;;;9.90;8.60;;;;;;;0.07;84.99;98118.96;1712583;83;21035;-65
2021/01/06 05:21:55;;;;;;;24.20;17.37;;;;;;;0.01;85.14;98109.91;1746789;80;21375;-65
2021/01/06 05:24:40;;;;;;;26.97;18.82;;;;;;;-0.03;85.31;98114.43;1748952;82;20948;-65
2021/01/06 05:27:30;;;;;;;22.60;16.42;;;;;;;-0.06;85.51;98112.73;1750599;82;21019;-64
2021/01/06 05:30:02;;;;;;;17.12;14.10;;;;;;;-0.10;85.83;98108.45;1717808;82;21036;-66
2021/01/06 05:32:37;;;;;;;16.30;12.43;;;;;;;-0.13;86.20;98104.58;1781718;80;20980;-64
2021/01/06 05:35:16;;;;;;;15.35;11.18;;;;;;;-0.16;86.45;98104.67;1749507;80;21478;-64
2021/01/06 05:37:51;;;;;;;16.85;11.83;;;;;;;-0.17;86.63;98107.36;1722153;82;20908;-65
2021/01/06 05:40:20;;;;;;;17.50;11.68;;;;;;;-0.18;86.64;98115.75;1781461;80;20952;-65
2021/01/06 05:42:58;;;;;;;12.03;10.05;;;;;;;-0.20;86.54;98120.22;1748887;82;21067;-64
2021/01/06 05:45:40;;;;;;;12.40;10.50;;;;;;;-0.22;86.60;98115.42;1750594;82;20889;-64
2021/01/06 05:48:20;;;;;;;12.25;9.95;;;;;;;-0.26;86.74;98121.73;1781585;80;22261;-65
2021/01/06 05:50:59;;;;;;;13.60;10.45;;;;;;;-0.28;86.85;98122.23;1750466;82;21037;-66
2021/01/06 05:53:51;;;;;;;11.20;10.05;;;;;;;-0.30;86.99;98124.03;1769421;80;20928;-64
2021/01/06 05:56:36;;;;;;;13.95;11.63;;;;;;;-0.33;87.13;98126.77;1750574;82;20948;-64
2021/01/06 05:59:19;;;;;;;12.50;11.20;;;;;;;-0.37;87.15;98133.92;1748738;82;20932;-64
2021/01/06 06:01:56;;;;;;;13.93;10.65;;;;;;;-0.40;87.12;98136.64;1781478;80;21379;-66
2021/01/06 06:05:01;;;;;;;16.07;12.53;;;;;;;-0.43;87.10;98130.98;1817547;79;20888;-65
2021/01/06 06:07:39;;;;;;;18.73;13.15;;;;;;;-0.46;87.00;98135.03;1817500;79;20983;-64
2021/01/06 06:10:34;;;;;;;15.85;11.25;;;;;;;-0.52;86.86;98141.84;1817509;78;21047;-65
2021/01/06 06:13:16;;;;;;;14.13;11.28;;;;;;;-0.56;86.92;98138.87;1750055;82;20914;-64
2021/01/06 06:16:24;;;;;;;14.50;10.82;;;;;;;-0.60;86.97;98137.21;1780912;80;22418;-65
2021/01/06 06:19:23;;;;;;;12.93;10.70;;;;;;;-0.64;87.00;98139.55;1800269;79;21386;-65
2021/01/06 06:22:11;;;;;;;18.23;12.85;;;;;;;-0.69;87.08;98132.19;1816884;79;20920;-64
2021/01/06 06:25:04;;;;;;;17.55;13.43;;;;;;;-0.73;87.10;98138.02;1749942;81;21569;-64
2021/01/06 06:27:38;;;;;;;17.25;12.95;;;;;;;-0.78;87.01;98139.47;1781017;80;20963;-65
2021/01/06 06:30:17;;;;;;;17.12;13.88;;;;;;;-0.81;87.07;98139.55;1817061;79;21271;-64
2021/01/06 06:32:48;;;;;;;15.72;13.78;;;;;;;-0.82;87.21;98139.59;1749994;82;20945;-64
2021/01/06 06:35:36;;;;;;;19.45;12.33;;;;;;;-0.84;87.33;98133.50;1781020;80;21323;-64
2021/01/06 06:38:06;;;;;;;17.32;13.53;;;;;;;-0.85;87.39;98139.23;1816891;79;20920;-64
2021/01/06 06:41:00;;;;;;;21.40;14.63;;;;;;;-0.85;87.39;98152.86;1816958;79;20928;-64
2021/01/06 06:43:45;;;;;;;22.55;14.98;;;;;;;-0.87;87.48;98155.53;1749977;82;21389;-63
2021/01/06 06:46:30;;;;;;;20.05;14.50;;;;;;;-0.86;87.66;98161.23;1780915;80;20920;-65
2021/01/06 06:49:31;;;;;;;27.25;14.83;;;;;;;-0.86;87.72;98161.23;1816944;79;21022;-65
2021/01/06 06:52:07;;;;;;;19.05;14.75;;;;;;;-0.86;87.58;98159.91;1816896;79;20976;-65
2021/01/06 06:55:19;;;;;;;20.37;14.23;;;;;;;-0.86;87.50;98151.15;1749977;82;21009;-65
2021/01/06 06:58:13;;;;;;;18.25;13.03;;;;;;;-0.86;87.49;98152.00;1780777;80;21019;-64
2021/01/06 07:00:41;;;;;;;16.15;13.85;;;;;;;-0.85;87.60;98162.97;1814631;79;20948;-65
2021/01/06 07:03:08;;;;;;;23.42;17.30;;;;;;;-0.85;87.76;98160.34;1720148;82;20961;-64
2021/01/06 07:05:54;;;;;;;24.70;17.62;;;;;;;-0.85;87.89;98161.66;1798404;79;20909;-64
2021/01/06 07:08:35;;;;;;;42.95;29.20;;;;;;;-0.84;88.04;98155.45;1798464;79;20913;-64
2021/01/06 07:11:35;;;;;;;54.63;32.28;;;;;;;-0.82;88.19;98168.59;1798528;79;21365;-64
2021/01/06 07:14:28;;;;;;;68.12;43.10;;;;;;;-0.79;88.32;98173.36;1774667;79;20929;-64
2021/01/06 07:17:05;;;;;;;69.42;46.50;;;;;;;-0.78;88.38;98178.17;1720248;83;21023;-65
2021/01/06 07:19:45;;;;;;;74.32;46.58;;;;;;;-0.76;88.45;98174.59;1798368;79;20929;-64
2021/01/06 07:22:31;;;;;;;78.47;47.20;;;;;;;-0.73;88.54;98178.90;1718547;83;20940;-64
2021/01/06 07:25:21;;;;;;;74.42;46.45;;;;;;;-0.69;88.57;98182.31;1798372;79;22118;-65
2021/01/06 07:27:52;;;;;;;70.03;44.30;;;;;;;-0.67;88.73;98184.01;1798238;79;20947;-65
2021/01/06 07:30:35;;;;;;;66.00;43.90;;;;;;;-0.61;88.81;98180.34;1720099;82;21020;-66
2021/01/06 07:33:41;;;;;;;69.30;45.60;;;;;;;-0.57;88.80;98181.97;1798449;79;20910;-65
2021/01/06 07:36:21;;;;;;;69.45;42.90;;;;;;;-0.53;88.81;98184.09;1749783;81;20905;-65
2021/01/06 07:38:50;;;;;;;55.63;36.28;;;;;;;-0.50;88.84;98183.55;1798431;79;22195;-64
2021/01/06 07:41:20;;;;;;;73.33;44.83;;;;;;;-0.45;88.92;98192.19;1720013;83;21028;-64
2021/01/06 07:44:08;;;;;;;72.78;45.08;;;;;;;-0.42;88.97;98205.30;1797820;79;21012;-66
2021/01/06 07:47:05;;;;;;;71.25;42.62;;;;;;;-0.37;89.14;98208.66;1776864;79;21047;-67
2021/01/06 07:49:53;;;;;;;61.28;38.85;;;;;;;-0.30;89.25;98205.84;1798190;79;20972;-67
2021/01/06 07:52:53;;;;;;;60.03;38.55;;;;;;;-0.25;89.34;98205.29;1722561;82;21204;-68
2021/01/06 07:55:53;;;;;;;62.13;39.70;;;;;;;-0.21;89.34;98210.87;1796367;79;21966;-67
2021/01/06 07:58:34;;;;;;;62.00;39.30;;;;;;;-0.17;89.38;98205.03;1797836;79;21344;-65
2021/01/06 08:01:14;;;;;;;152.62;102.38;;;;;;;-0.14;89.38;98199.67;1720599;82;21055;-67
2021/01/06 08:03:56;;;;;;;63.50;42.20;;;;;;;-0.10;89.49;98203.49;1726296;83;20992;-67
2021/01/06 08:06:50;;;;;;;66.50;42.33;;;;;;;-0.05;89.75;98196.33;1770742;80;21453;-66
2021/01/06 08:09:37;;;;;;;49.90;31.80;;;;;;;0.01;89.73;98201.01;1696540;84;21007;-63
2021/01/06 08:12:30;;;;;;;52.65;32.28;;;;;;;0.07;89.71;98196.40;1770856;81;20944;-67
2021/01/06 08:15:22;;;;;;;50.20;32.83;;;;;;;0.12;89.72;98193.62;1697098;84;21071;-67
2021/01/06 08:18:10;;;;;;;67.27;41.90;;;;;;;0.19;89.75;98196.50;1770531;81;21008;-67
2021/01/06 08:21:09;;;;;;;70.32;43.48;;;;;;;0.24;89.65;98205.14;1697703;84;22195;-67
2021/01/06 08:24:03;;;;;;;84.20;53.48;;;;;;;0.29;89.53;98200.56;1764243;81;21048;-67
2021/01/06 08:26:30;;;;;;;207.03;132.87;;;;;;;0.35;89.52;98206.98;1697743;84;21016;-61
2021/01/06 08:29:27;;;;;;;126.67;75.87;;;;;;;0.43;89.80;98205.89;1715744;81;20941;-63
2021/01/06 08:32:00;;;;;;;92.72;58.70;;;;;;;0.52;90.55;98205.14;1770429;81;21000;-65
2021/01/06 08:34:38;;;;;;;92.17;59.03;;;;;;;0.66;90.93;98195.88;1697555;84;21378;-67
2021/01/06 08:37:12;;;;;;;102.45;67.00;;;;;;;0.76;91.02;98196.44;1770655;80;20952;-68
2021/01/06 08:39:55;;;;;;;95.45;62.30;;;;;;;0.85;91.01;98197.02;1740057;81;21012;-67
2021/01/06 08:42:28;;;;;;;72.13;46.77;;;;;;;0.95;90.78;98204.19;1697880;84;21469;-66
2021/01/06 08:44:59;;;;;;;80.32;54.42;;;;;;;1.04;90.51;98208.28;1739445;81;20980;-66
2021/01/06 08:47:35;;;;;;;93.20;58.70;;;;;;;1.12;90.19;98209.34;1697337;84;21207;-67
2021/01/06 08:50:29;;;;;;;72.45;48.02;;;;;;;1.19;89.92;98208.23;1769964;80;21047;-66
2021/01/06 08:53:05;;;;;;;53.90;41.18;;;;;;;1.26;89.63;98209.73;1697407;84;21490;-66
2021/01/06 08:55:36;;;;;;;60.08;39.98;;;;;;;1.32;89.37;98208.19;1770928;81;20893;-66
2021/01/06 08:58:09;;;;;;;58.48;39.50;;;;;;;1.39;89.01;98210.19;1770756;81;21036;-65
2021/01/06 09:00:44;;;;;;;;;;;;;;;1.44;88.63;98216.17;1700164;83;21386;-66
2021/01/06 09:03:26;;;;;;;52.75;35.85;;;;;;;1.50;88.31;98210.67;1716025;82;20130;-66
2021/01/06 09:06:14;;;;;;;39.92;29.02;;;;;;;1.53;88.09;98203.05;1718907;83;21477;-67
2021/01/06 09:09:05;;;;;;;31.00;23.92;;;;;;;1.59;87.86;98200.19;1778174;80;20892;-66
2021/01/06 09:11:37;;;;;;;33.40;23.05;;;;;;;1.63;87.37;98199.17;1778291;80;20889;-66
2021/01/06 09:14:11;;;;;;;34.55;24.18;;;;;;;1.68;87.12;98193.23;1769922;80;21353;-66
2021/01/06 09:16:49;;;;;;;33.25;23.83;;;;;;;1.73;86.91;98195.25;1778170;80;21039;-66
2021/01/06 09:19:49;;;;;;;22.27;18.95;;;;;;;1.78;86.82;98190.67;1778257;80;21027;-66
2021/01/06 09:22:17;;;;;;;23.42;18.75;;;;;;;1.86;86.81;98196.13;1770970;80;20928;-65
2021/01/06 09:24:44;;;;;;;22.15;17.42;;;;;;;1.91;86.71;98199.48;1778303;80;20920;-67
2021/01/06 09:27:33;;;;;;;23.98;19.23;;;;;;;1.96;86.62;98196.20;1778317;80;21364;-67
2021/01/06 09:30:09;;;;;;;24.07;18.50;;;;;;;2.01;86.51;98192.91;1743512;82;21027;-65
2021/01/06 09:32:37;;;;;;;21.17;18.30;;;;;;;2.07;86.42;98185.20;1764258;80;21481;-66
2021/01/06 09:35:10;;;;;;;20.50;15.58;;;;;;;2.11;86.34;98178.40;1737859;80;20947;-66
2021/01/06 09:37:40;;;;;;;17.07;11.65;;;;;;;2.14;86.25;98176.95;1778034;80;21023;-65
2021/01/06 09:40:16;;;;;;;11.97;10.43;;;;;;;2.18;86.04;98179.02;1778250;80;21374;-66
2021/01/06 09:42:46;;;;;;;14.68;12.40;;;;;;;2.22;85.66;98170.00;1745835;80;20905;-66
2021/01/06 09:45:21;;;;;;;19.20;15.00;;;;;;;2.26;85.36;98172.09;1777606;80;20952;-65
2021/01/06 09:47:49;;;;;;;20.37;14.38;;;;;;;2.28;85.15;98164.94;1778334;80;21007;-65
2021/01/06 09:50:26;;;;;;;12.30;11.00;;;;;;;2.30;84.97;98175.89;1713073;82;20917;-66
2021/01/06 09:52:54;;;;;;;14.80;11.88;;;;;;;2.34;84.56;98179.27;1714166;83;21440;-66
2021/01/06 09:55:24;;;;;;;13.20;11.08;;;;;;;2.35;84.27;98164.63;1743872;82;21024;-66
2021/01/06 09:58:07;;;;;;;11.50;10.30;;;;;;;2.38;84.04;98167.64;1714175;83;21029;-66
2021/01/06 10:00:41;;;;;;;12.95;10.63;;;;;;;2.39;83.85;98162.72;1684299;83;20945;-66
2021/01/06 10:03:09;;;;;;;11.68;10.48;;;;;;;2.41;83.44;98158.20;1797595;79;20956;-68
2021/01/06 10:06:05;;;;;;;13.72;10.68;;;;;;;2.44;83.36;98161.20;1716612;82;21453;-66
2021/01/06 10:08:37;;;;;;;12.82;11.55;;;;;;;2.47;83.09;98159.76;1769743;81;20948;-67
2021/01/06 10:11:27;;;;;;;12.50;11.20;;;;;;;2.49;82.88;98154.80;1739603;82;23853;-65
2021/01/06 10:14:30;;;;;;;12.45;10.53;;;;;;;2.53;82.90;98153.73;1739340;82;20945;-66
2021/01/06 10:17:06;;;;;;;13.70;11.80;;;;;;;2.57;82.84;98153.61;1746305;81;20985;-67
2021/01/06 10:19:53;;;;;;;12.20;10.58;;;;;;;2.61;82.79;98153.42;1739256;82;21390;-65
2021/01/06 10:22:31;;;;;;;13.58;11.38;;;;;;;2.64;82.14;98152.45;1715560;82;21008;-65
2021/01/06 10:25:34;;;;;;;12.63;10.82;;;;;;;2.70;81.95;98153.05;1738884;82;21014;-66
2021/01/06 10:28:23;;;;;;;13.55;11.68;;;;;;;2.74;81.73;98152.45;1769944;81;20937;-65
2021/01/06 10:31:13;;;;;;;13.53;11.97;;;;;;;2.78;81.64;98149.23;1739253;82;20956;-66
2021/01/06 10:34:08;;;;;;;14.85;11.68;;;;;;;2.81;81.63;98151.28;1739391;82;21394;-65
2021/01/06 10:37:07;;;;;;;12.68;11.38;;;;;;;2.84;81.27;98155.61;1739162;82;20971;-66
2021/01/06 10:39:48;;;;;;;13.85;11.75;;;;;;;2.86;81.05;98145.31;1739391;82;20932;-65
2021/01/06 10:42:24;;;;;;;19.07;13.53;;;;;;;2.86;81.01;98150.62;1737675;82;21497;-66
2021/01/06 10:45:24;;;;;;;13.15;11.80;;;;;;;2.88;80.97;98146.09;1739333;82;21362;-66
2021/01/06 10:47:52;;;;;;;11.93;10.10;;;;;;;2.92;81.16;98140.66;1769882;81;22293;-65
2021/01/06 10:50:32;;;;;;;13.03;11.10;;;;;;;2.95;81.15;98148.50;1739354;82;21020;-64
2021/01/06 10:53:24;;;;;;;12.45;11.15;;;;;;;2.98;81.09;98142.62;1736858;82;20964;-66
2021/01/06 10:56:12;;;;;;;23.47;15.48;;;;;;;3.01;81.22;98145.14;1769903;81;20992;-67
2021/01/06 10:59:05;;;;;;;23.47;16.42;;;;;;;3.04;81.10;98134.84;1738658;82;20968;-65
2021/01/06 11:01:49;;;;;;;22.22;17.37;;;;;;;3.06;80.98;98136.51;1738693;82;21373;-65
2021/01/06 11:04:41;;;;;;;17.48;15.63;;;;;;;3.08;80.60;98144.41;1769135;80;20984;-66
2021/01/06 11:07:43;;;;;;;19.40;16.73;;;;;;;3.11;80.48;98143.42;1738926;82;21016;-66
2021/01/06 11:10:36;;;;;;;18.00;15.60;;;;;;;3.11;80.20;98135.46;1739314;82;21008;-67
2021/01/06 11:13:41;;;;;;;14.47;12.68;;;;;;;3.09;80.29;98130.22;1767808;81;20932;-65
2021/01/06 11:16:16;;;;;;;15.40;13.25;;;;;;;3.07;80.31;98124.09;1739387;82;21204;-65
2021/01/06 11:18:47;;;;;;;15.65;13.95;;;;;;;3.04;80.42;98116.27;1735191;82;21502;-67
2021/01/06 11:21:24;;;;;;;12.68;10.75;;;;;;;3.04;80.31;98108.30;1769997;81;21360;-67
2021/01/06 11:23:57;;;;;;;16.05;14.38;;;;;;;3.03;80.33;98101.30;1739363;82;21016;-65
2021/01/06 11:26:43;;;;;;;14.98;13.40;;;;;;;3.02;80.22;98091.59;1739464;82;21367;-65
2021/01/06 11:29:27;;;;;;;13.28;11.85;;;;;;;3.04;80.16;98095.03;1764156;81;21535;-66
2021/01/06 11:32:12;;;;;;;16.60;13.48;;;;;;;3.07;80.45;98102.86;1739256;82;20960;-66
2021/01/06 11:34:41;;;;;;;14.28;12.07;;;;;;;3.12;80.60;98103.52;1734066;82;21012;-66
2021/01/06 11:37:33;;;;;;;15.40;13.80;;;;;;;3.16;80.08;98106.45;1769855;81;21023;-65
2021/01/06 11:40:01;;;;;;;15.43;13.90;;;;;;;3.19;80.12;98085.08;1739391;82;21020;-65
2021/01/06 11:43:25;;;;;;;11.60;10.40;;;;;;;3.23;80.18;98084.02;1739279;82;21386;-66
2021/01/06 11:45:53;;;;;;;12.53;11.35;;;;;;;3.28;80.12;98073.65;1769910;81;20910;-66
2021/01/06 11:48:37;;;;;;;12.75;11.53;;;;;;;3.31;79.44;98085.45;1737718;82;21025;-66
2021/01/06 11:51:24;;;;;;;12.58;11.28;;;;;;;3.33;79.60;98074.33;1739389;82;21524;-66
2021/01/06 11:54:04;;;;;;;13.15;11.65;;;;;;;3.36;79.50;98066.19;1769990;81;21410;-65
2021/01/06 11:56:36;;;;;;;13.68;12.07;;;;;;;3.39;79.24;98073.58;1737685;82;21397;-66
2021/01/06 11:59:24;;;;;;;12.68;11.38;;;;;;;3.41;78.72;98066.87;1739143;82;20984;-65
2021/01/06 12:02:16;;;;;;;12.70;11.40;;;;;;;3.41;78.57;98058.91;1769856;81;20933;-65
2021/01/06 12:05:07;;;;;;;14.07;12.43;;;;;;;3.38;78.67;98059.89;1739333;82;20909;-66
2021/01/06 12:07:49;;;;;;;14.65;12.50;;;;;;;3.36;78.68;98054.24;1682045;82;20959;-65
2021/01/06 12:10:25;;;;;;;13.65;12.18;;;;;;;3.30;78.92;98048.77;1769850;81;21374;-65
2021/01/06 12:13:07;;;;;;;12.73;11.43;;;;;;;3.25;79.24;98051.63;1739244;82;21020;-65
2021/01/06 12:15:55;;;;;;;13.78;11.20;;;;;;;3.19;79.10;98059.87;1739331;82;20937;-65
2021/01/06 12:18:48;;;;;;;13.35;11.53;;;;;;;3.14;79.39;98064.53;1769825;81;20921;-66
2021/01/06 12:21:51;;;;;;;18.07;11.83;;;;;;;3.10;79.69;98050.14;1739611;82;20945;-64
2021/01/06 12:24:34;;;;;;;15.15;12.25;;;;;;;3.04;79.76;98044.63;1733549;82;21647;-65